PWSweather.com
Personal Weather Stations
Station Observations

ChardChardGB

Lat: 50.877408, Lon: -2.94964741

Elevation: 341

Station Type: WS3083

http://www.merriott-astro.co.uk/weather/index.htm

High Low Average
Temperature 55.6°F13.1°C 51.6°F10.9°C 53.6°F12.0°C
Dew Point 50.9°F10.5°C 46.4°F8.0°C 49.2°F9.6°C
Winds 11.4 mph 18.3 kmh Calm Calm 4.0 mph SSE6.4 kmh SSE
Wind Gusts 15.9 mph25.6 kmh -- 7.0 mph11.3 kmh
Humidity 89% 74% 85%
Pressure 29.90 in1012.5 mb 29.74 in1007.1 mb -
Precipitation 0.04 in1.0 mm - -
Hour Temp Dew Point Humidity Winds Wind Gusts Pressure Precip Precip Rate Daily Precip Total
12:20 AM 51.8°F11.0°C 48.7°F9.3°C 89% 3.8 mph SW6.1 kmh SW 7.6 mph12.2 kmh 29.80 in1009.1 mb 0.00 in0.0 mm 0.00 in0.0 mm 0.00 in0.0 mm
12:30 AM 51.8°F11.0°C 48.7°F9.3°C 89% 1.9 mph SSW3.1 kmh SSW 6.0 mph9.7 kmh 29.80 in1009.1 mb 0.00 in0.0 mm 0.00 in0.0 mm 0.00 in0.0 mm
12:40 AM 52.0°F11.1°C 48.8°F9.3°C 89% 4.2 mph SW6.8 kmh SW 6.0 mph9.7 kmh 29.80 in1009.1 mb 0.00 in0.0 mm 0.00 in0.0 mm 0.00 in0.0 mm
12:50 AM 52.2°F11.2°C 49.0°F9.4°C 89% 2.7 mph SSW4.3 kmh SSW 7.6 mph12.2 kmh 29.81 in1009.5 mb 0.00 in0.0 mm 0.00 in0.0 mm 0.00 in0.0 mm
01:00 AM 52.2°F11.2°C 49.0°F9.4°C 89% 2.7 mph SW4.3 kmh SW 5.4 mph8.7 kmh 29.81 in1009.5 mb 0.00 in0.0 mm 0.00 in0.0 mm 0.00 in0.0 mm
01:10 AM 52.2°F11.2°C 49.0°F9.4°C 89% 3.0 mph SW4.8 kmh SW 5.4 mph8.7 kmh 29.82 in1009.8 mb 0.00 in0.0 mm 0.00 in0.0 mm 0.00 in0.0 mm
01:20 AM 52.2°F11.2°C 49.0°F9.4°C 89% 2.8 mph SW4.5 kmh SW 5.4 mph8.7 kmh 29.81 in1009.5 mb 0.00 in0.0 mm 0.00 in0.0 mm 0.00 in0.0 mm
01:30 AM 52.0°F11.1°C 48.5°F9.2°C 88% 2.6 mph SSW4.2 kmh SSW 4.5 mph7.2 kmh 29.80 in1009.1 mb 0.00 in0.0 mm 0.00 in0.0 mm 0.00 in0.0 mm
01:40 AM 51.8°F11.0°C 48.4°F9.1°C 88% Calm Calm -- 29.82 in1009.8 mb 0.00 in0.0 mm 0.00 in0.0 mm 0.00 in0.0 mm
01:50 AM 51.6°F10.9°C 47.9°F8.8°C 87% Calm Calm -- 29.83 in1010.2 mb 0.00 in0.0 mm 0.00 in0.0 mm 0.00 in0.0 mm
02:00 AM 51.6°F10.9°C 47.9°F8.8°C 87% Calm Calm -- 29.82 in1009.8 mb 0.00 in0.0 mm 0.00 in0.0 mm 0.00 in0.0 mm
02:10 AM 51.6°F10.9°C 47.9°F8.8°C 87% Calm Calm -- 29.82 in1009.8 mb 0.00 in0.0 mm 0.00 in0.0 mm 0.00 in0.0 mm
02:20 AM 52.0°F11.1°C 48.5°F9.2°C 88% 1.5 mph S2.4 kmh S 4.5 mph7.2 kmh 29.83 in1010.2 mb 0.00 in0.0 mm 0.00 in0.0 mm 0.00 in0.0 mm
02:30 AM 52.2°F11.2°C 48.7°F9.3°C 88% Calm Calm -- 29.82 in1009.8 mb 0.00 in0.0 mm 0.00 in0.0 mm 0.00 in0.0 mm
02:40 AM 52.2°F11.2°C 48.7°F9.3°C 88% Calm Calm -- 29.82 in1009.8 mb 0.00 in0.0 mm 0.00 in0.0 mm 0.00 in0.0 mm
02:50 AM 52.0°F11.1°C 48.2°F9.0°C 87% Calm Calm -- 29.82 in1009.8 mb 0.00 in0.0 mm 0.00 in0.0 mm 0.00 in0.0 mm
03:00 AM 51.8°F11.0°C 48.1°F8.9°C 87% Calm Calm -- 29.82 in1009.8 mb 0.00 in0.0 mm 0.00 in0.0 mm 0.00 in0.0 mm
03:10 AM 51.8°F11.0°C 48.1°F8.9°C 87% Calm Calm -- 29.82 in1009.8 mb 0.00 in0.0 mm 0.00 in0.0 mm 0.00 in0.0 mm
03:20 AM 51.6°F10.9°C 47.9°F8.8°C 87% Calm Calm -- 29.83 in1010.2 mb 0.00 in0.0 mm 0.00 in0.0 mm 0.00 in0.0 mm
03:30 AM 51.8°F11.0°C 48.1°F8.9°C 87% Calm Calm -- 29.84 in1010.5 mb 0.00 in0.0 mm 0.00 in0.0 mm 0.00 in0.0 mm
03:40 AM 52.2°F11.2°C 48.7°F9.3°C 88% Calm Calm -- 29.83 in1010.2 mb 0.00 in0.0 mm 0.00 in0.0 mm 0.00 in0.0 mm
03:50 AM 52.3°F11.3°C 48.9°F9.4°C 88% Calm Calm -- 29.83 in1010.2 mb 0.00 in0.0 mm 0.00 in0.0 mm 0.00 in0.0 mm
04:00 AM 52.5°F11.4°C 49.1°F9.5°C 88% Calm Calm -- 29.84 in1010.5 mb 0.00 in0.0 mm 0.00 in0.0 mm 0.00 in0.0 mm
04:10 AM 52.5°F11.4°C 49.1°F9.5°C 88% Calm Calm -- 29.84 in1010.5 mb 0.00 in0.0 mm 0.00 in0.0 mm 0.00 in0.0 mm
04:20 AM 52.3°F11.3°C 48.9°F9.4°C 88% 2.1 mph S3.4 kmh S 6.0 mph9.7 kmh 29.83 in1010.2 mb 0.00 in0.0 mm 0.00 in0.0 mm 0.00 in0.0 mm
04:30 AM 52.2°F11.2°C 48.4°F9.1°C 87% Calm Calm -- 29.84 in1010.5 mb 0.00 in0.0 mm 0.00 in0.0 mm 0.00 in0.0 mm
04:40 AM 52.2°F11.2°C 48.4°F9.1°C 87% Calm Calm -- 29.84 in1010.5 mb 0.00 in0.0 mm 0.00 in0.0 mm 0.00 in0.0 mm
04:50 AM 52.0°F11.1°C 48.2°F9.0°C 87% Calm Calm -- 29.84 in1010.5 mb 0.00 in0.0 mm 0.00 in0.0 mm 0.00 in0.0 mm
05:00 AM 52.0°F11.1°C 48.2°F9.0°C 87% Calm Calm -- 29.85 in1010.8 mb 0.00 in0.0 mm 0.00 in0.0 mm 0.00 in0.0 mm
05:10 AM 51.8°F11.0°C 48.1°F8.9°C 87% Calm Calm -- 29.85 in1010.8 mb 0.00 in0.0 mm 0.00 in0.0 mm 0.00 in0.0 mm
05:20 AM 51.8°F11.0°C 48.1°F8.9°C 87% Calm Calm -- 29.85 in1010.8 mb 0.00 in0.0 mm 0.00 in0.0 mm 0.00 in0.0 mm
05:30 AM 51.8°F11.0°C 48.1°F8.9°C 87% Calm Calm -- 29.84 in1010.5 mb 0.00 in0.0 mm 0.00 in0.0 mm 0.00 in0.0 mm
05:40 AM 51.8°F11.0°C 48.1°F8.9°C 87% Calm Calm -- 29.84 in1010.5 mb 0.00 in0.0 mm 0.00 in0.0 mm 0.00 in0.0 mm
05:50 AM 51.8°F11.0°C 48.1°F8.9°C 87% Calm Calm -- 29.84 in1010.5 mb 0.00 in0.0 mm 0.00 in0.0 mm 0.00 in0.0 mm
06:00 AM 51.8°F11.0°C 48.4°F9.1°C 88% Calm Calm -- 29.84 in1010.5 mb 0.00 in0.0 mm 0.00 in0.0 mm 0.00 in0.0 mm
06:10 AM 52.0°F11.1°C 48.5°F9.2°C 88% Calm Calm -- 29.84 in1010.5 mb 0.00 in0.0 mm 0.00 in0.0 mm 0.00 in0.0 mm
06:20 AM 52.0°F11.1°C 48.5°F9.2°C 88% Calm Calm -- 29.84 in1010.5 mb 0.00 in0.0 mm 0.00 in0.0 mm 0.00 in0.0 mm
06:30 AM 52.2°F11.2°C 48.7°F9.3°C 88% Calm Calm -- 29.85 in1010.8 mb 0.00 in0.0 mm 0.00 in0.0 mm 0.00 in0.0 mm
06:40 AM 52.3°F11.3°C 49.2°F9.6°C 89% Calm Calm -- 29.85 in1010.8 mb 0.00 in0.0 mm 0.00 in0.0 mm 0.00 in0.0 mm
06:50 AM 52.3°F11.3°C 49.2°F9.6°C 89% Calm Calm -- 29.86 in1011.2 mb 0.00 in0.0 mm 0.00 in0.0 mm 0.00 in0.0 mm
07:00 AM 52.3°F11.3°C 49.2°F9.6°C 89% 2.1 mph S3.4 kmh S 5.4 mph8.7 kmh 29.86 in1011.2 mb 0.00 in0.0 mm 0.00 in0.0 mm 0.00 in0.0 mm
07:10 AM 52.3°F11.3°C 49.2°F9.6°C 89% 2.6 mph SW4.2 kmh SW 6.0 mph9.7 kmh 29.87 in1011.5 mb 0.00 in0.0 mm 0.00 in0.0 mm 0.00 in0.0 mm
07:20 AM 52.5°F11.4°C 49.4°F9.7°C 89% 3.2 mph SSW5.1 kmh SSW 9.2 mph14.8 kmh 29.87 in1011.5 mb 0.00 in0.0 mm 0.00 in0.0 mm 0.00 in0.0 mm
07:30 AM 52.7°F11.5°C 49.6°F9.8°C 89% 5.0 mph SSW8.0 kmh SSW 7.6 mph12.2 kmh 29.87 in1011.5 mb 0.00 in0.0 mm 0.00 in0.0 mm 0.00 in0.0 mm
07:40 AM 52.5°F11.4°C 49.1°F9.5°C 88% 0.4 mph SSW0.6 kmh SSW 3.1 mph5.0 kmh 29.86 in1011.2 mb 0.00 in0.0 mm 0.00 in0.0 mm 0.00 in0.0 mm
07:50 AM 52.5°F11.4°C 49.1°F9.5°C 88% 2.0 mph S3.2 kmh S 6.0 mph9.7 kmh 29.87 in1011.5 mb 0.00 in0.0 mm 0.00 in0.0 mm 0.00 in0.0 mm
08:00 AM 52.3°F11.3°C 48.9°F9.4°C 88% 2.0 mph S3.2 kmh S 4.5 mph7.2 kmh 29.87 in1011.5 mb 0.00 in0.0 mm 0.00 in0.0 mm 0.00 in0.0 mm
08:10 AM 52.3°F11.3°C 48.9°F9.4°C 88% 1.2 mph S1.9 kmh S 4.5 mph7.2 kmh 29.87 in1011.5 mb 0.00 in0.0 mm 0.00 in0.0 mm 0.00 in0.0 mm
08:20 AM 52.3°F11.3°C 48.9°F9.4°C 88% 1.6 mph SSW2.6 kmh SSW 4.5 mph7.2 kmh 29.88 in1011.9 mb 0.00 in0.0 mm 0.00 in0.0 mm 0.00 in0.0 mm
08:30 AM 52.3°F11.3°C 48.9°F9.4°C 88% 2.5 mph SSW4.0 kmh SSW 6.9 mph11.1 kmh 29.88 in1011.9 mb 0.00 in0.0 mm 0.00 in0.0 mm 0.00 in0.0 mm
08:40 AM 52.3°F11.3°C 49.2°F9.6°C 89% 2.2 mph S3.5 kmh S 4.5 mph7.2 kmh 29.88 in1011.9 mb 0.00 in0.0 mm 0.00 in0.0 mm 0.00 in0.0 mm
08:50 AM 52.3°F11.3°C 49.2°F9.6°C 89% 3.8 mph SSW6.1 kmh SSW 7.6 mph12.2 kmh 29.87 in1011.5 mb 0.00 in0.0 mm 0.00 in0.0 mm 0.00 in0.0 mm
09:00 AM 52.3°F11.3°C 49.2°F9.6°C 89% 3.3 mph S5.3 kmh S 7.6 mph12.2 kmh 29.88 in1011.9 mb 0.00 in0.0 mm 0.00 in0.0 mm 0.00 in0.0 mm
09:10 AM 52.5°F11.4°C 49.4°F9.7°C 89% 3.0 mph SSW4.8 kmh SSW 5.4 mph8.7 kmh 29.88 in1011.9 mb 0.00 in0.0 mm 0.00 in0.0 mm 0.00 in0.0 mm
09:20 AM 52.5°F11.4°C 49.4°F9.7°C 89% 0.3 mph S0.5 kmh S 2.2 mph3.5 kmh 29.88 in1011.9 mb 0.01 in0.3 mm 0.06 in1.5 mm 0.01 in0.3 mm
09:30 AM 52.5°F11.4°C 49.4°F9.7°C 89% 2.6 mph SSW4.2 kmh SSW 5.4 mph8.7 kmh 29.89 in1012.2 mb 0.01 in0.3 mm 0.00 in0.0 mm 0.01 in0.3 mm
09:40 AM 52.5°F11.4°C 49.4°F9.7°C 89% 1.8 mph SW2.9 kmh SW 6.9 mph11.1 kmh 29.89 in1012.2 mb 0.01 in0.3 mm 0.00 in0.0 mm 0.01 in0.3 mm
09:50 AM 52.7°F11.5°C 49.6°F9.8°C 89% 1.1 mph SW1.8 kmh SW 5.4 mph8.7 kmh 29.89 in1012.2 mb 0.01 in0.3 mm 0.00 in0.0 mm 0.01 in0.3 mm
10:00 AM 52.9°F11.6°C 49.7°F9.8°C 89% 7.0 mph WSW11.3 kmh WSW 13.0 mph20.9 kmh 29.89 in1012.2 mb 0.01 in0.3 mm 0.00 in0.0 mm 0.01 in0.3 mm
10:10 AM 53.1°F11.7°C 49.6°F9.8°C 88% 5.9 mph SW9.5 kmh SW 9.2 mph14.8 kmh 29.88 in1011.9 mb 0.01 in0.3 mm 0.00 in0.0 mm 0.01 in0.3 mm
10:20 AM 53.2°F11.8°C 49.5°F9.7°C 87% 5.2 mph SW8.4 kmh SW 7.6 mph12.2 kmh 29.88 in1011.9 mb 0.00 in0.0 mm 0.00 in0.0 mm 0.01 in0.3 mm
10:30 AM 53.2°F11.8°C 49.2°F9.6°C 86% 4.4 mph S7.1 kmh S 6.9 mph11.1 kmh 29.88 in1011.9 mb 0.00 in0.0 mm 0.00 in0.0 mm 0.01 in0.3 mm
10:40 AM 53.6°F12.0°C 49.2°F9.6°C 85% 4.5 mph S7.2 kmh S 9.2 mph14.8 kmh 29.89 in1012.2 mb 0.01 in0.3 mm 0.06 in1.5 mm 0.02 in0.5 mm
10:50 AM 53.6°F12.0°C 48.6°F9.2°C 83% 6.5 mph S10.5 kmh S 9.8 mph15.8 kmh 29.89 in1012.2 mb 0.01 in0.3 mm 0.00 in0.0 mm 0.02 in0.5 mm
11:00 AM 54.0°F12.2°C 48.3°F9.1°C 81% 5.9 mph SSW9.5 kmh SSW 9.2 mph14.8 kmh 29.90 in1012.5 mb 0.01 in0.3 mm 0.00 in0.0 mm 0.02 in0.5 mm
11:10 AM 54.0°F12.2°C 47.6°F8.7°C 79% 4.2 mph SW6.8 kmh SW 9.2 mph14.8 kmh 29.90 in1012.5 mb 0.01 in0.3 mm 0.00 in0.0 mm 0.02 in0.5 mm
11:20 AM 54.3°F12.4°C 47.6°F8.7°C 78% 4.5 mph SW7.2 kmh SW 8.3 mph13.4 kmh 29.90 in1012.5 mb 0.01 in0.3 mm 0.00 in0.0 mm 0.02 in0.5 mm
11:30 AM 54.5°F12.5°C 46.4°F8.0°C 74% 5.0 mph SSW8.0 kmh SSW 10.7 mph17.2 kmh 29.90 in1012.5 mb 0.01 in0.3 mm 0.00 in0.0 mm 0.02 in0.5 mm
11:40 AM 54.9°F12.7°C 46.7°F8.2°C 74% 5.0 mph S8.0 kmh S 9.8 mph15.8 kmh 29.90 in1012.5 mb 0.00 in0.0 mm 0.00 in0.0 mm 0.02 in0.5 mm
11:50 AM 54.7°F12.6°C 46.6°F8.1°C 74% 4.7 mph SSW7.6 kmh SSW 9.2 mph14.8 kmh 29.89 in1012.2 mb 0.00 in0.0 mm 0.00 in0.0 mm 0.02 in0.5 mm
12:00 PM 54.5°F12.5°C 46.4°F8.0°C 74% 6.2 mph S10.0 kmh S 9.2 mph14.8 kmh 29.88 in1011.9 mb 0.00 in0.0 mm 0.00 in0.0 mm 0.02 in0.5 mm
12:10 PM 54.5°F12.5°C 46.7°F8.2°C 75% 6.1 mph S9.8 kmh S 12.1 mph19.5 kmh 29.89 in1012.2 mb 0.00 in0.0 mm 0.00 in0.0 mm 0.02 in0.5 mm
12:20 PM 54.7°F12.6°C 47.3°F8.5°C 76% 6.8 mph SW10.9 kmh SW 12.1 mph19.5 kmh 29.88 in1011.9 mb 0.00 in0.0 mm 0.00 in0.0 mm 0.02 in0.5 mm
12:30 PM 55.0°F12.8°C 47.6°F8.7°C 76% 6.7 mph SW10.8 kmh SW 10.7 mph17.2 kmh 29.87 in1011.5 mb 0.00 in0.0 mm 0.00 in0.0 mm 0.02 in0.5 mm
12:40 PM 55.6°F13.1°C 48.1°F8.9°C 76% 6.5 mph SW10.5 kmh SW 10.7 mph17.2 kmh 29.87 in1011.5 mb 0.00 in0.0 mm 0.00 in0.0 mm 0.02 in0.5 mm
12:50 PM 55.6°F13.1°C 48.1°F8.9°C 76% 5.3 mph SW8.5 kmh SW 7.6 mph12.2 kmh 29.86 in1011.2 mb 0.00 in0.0 mm 0.00 in0.0 mm 0.02 in0.5 mm
01:00 PM 55.4°F13.0°C 48.0°F8.9°C 76% 6.2 mph SSW10.0 kmh SSW 9.2 mph14.8 kmh 29.86 in1011.2 mb 0.00 in0.0 mm 0.00 in0.0 mm 0.02 in0.5 mm
01:10 PM 55.6°F13.1°C 48.5°F9.2°C 77% 4.3 mph SW6.9 kmh SW 8.3 mph13.4 kmh 29.87 in1011.5 mb 0.00 in0.0 mm 0.00 in0.0 mm 0.02 in0.5 mm
01:20 PM 55.4°F13.0°C 48.3°F9.1°C 77% 6.1 mph SW9.8 kmh SW 11.4 mph18.3 kmh 29.86 in1011.2 mb 0.00 in0.0 mm 0.00 in0.0 mm 0.02 in0.5 mm
01:30 PM 55.4°F13.0°C 48.7°F9.3°C 78% 5.8 mph SW9.3 kmh SW 10.7 mph17.2 kmh 29.86 in1011.2 mb 0.00 in0.0 mm 0.00 in0.0 mm 0.02 in0.5 mm
01:40 PM 55.4°F13.0°C 48.7°F9.3°C 78% 6.6 mph S10.6 kmh S 11.4 mph18.3 kmh 29.85 in1010.8 mb 0.00 in0.0 mm 0.00 in0.0 mm 0.02 in0.5 mm
01:50 PM 55.2°F12.9°C 48.8°F9.3°C 79% 6.2 mph SSW10.0 kmh SSW 10.7 mph17.2 kmh 29.85 in1010.8 mb 0.00 in0.0 mm 0.00 in0.0 mm 0.02 in0.5 mm
02:00 PM 55.0°F12.8°C 49.0°F9.4°C 80% 6.7 mph SSW10.8 kmh SSW 10.7 mph17.2 kmh 29.85 in1010.8 mb 0.00 in0.0 mm 0.00 in0.0 mm 0.02 in0.5 mm
02:10 PM 54.9°F12.7°C 49.1°F9.5°C 81% 7.4 mph SSW11.9 kmh SSW 10.7 mph17.2 kmh 29.84 in1010.5 mb 0.00 in0.0 mm 0.00 in0.0 mm 0.02 in0.5 mm
02:20 PM 54.7°F12.6°C 49.0°F9.4°C 81% 8.5 mph S13.7 kmh S 11.4 mph18.3 kmh 29.84 in1010.5 mb 0.00 in0.0 mm 0.00 in0.0 mm 0.02 in0.5 mm
02:30 PM 54.5°F12.5°C 49.1°F9.5°C 82% 7.5 mph SW12.1 kmh SW 10.7 mph17.2 kmh 29.85 in1010.8 mb 0.00 in0.0 mm 0.00 in0.0 mm 0.02 in0.5 mm
02:40 PM 54.5°F12.5°C 49.1°F9.5°C 82% 8.0 mph S12.9 kmh S 11.4 mph18.3 kmh 29.85 in1010.8 mb 0.00 in0.0 mm 0.00 in0.0 mm 0.02 in0.5 mm
02:50 PM 54.3°F12.4°C 49.9°F9.9°C 85% 7.3 mph S11.7 kmh S 9.8 mph15.8 kmh 29.84 in1010.5 mb 0.00 in0.0 mm 0.00 in0.0 mm 0.02 in0.5 mm
03:00 PM 54.3°F12.4°C 50.2°F10.1°C 86% 5.6 mph SW9.0 kmh SW 9.2 mph14.8 kmh 29.84 in1010.5 mb 0.00 in0.0 mm 0.00 in0.0 mm 0.02 in0.5 mm
03:10 PM 54.3°F12.4°C 50.2°F10.1°C 86% 6.7 mph SSW10.8 kmh SSW 12.1 mph19.5 kmh 29.84 in1010.5 mb 0.00 in0.0 mm 0.00 in0.0 mm 0.02 in0.5 mm
03:20 PM 54.3°F12.4°C 50.2°F10.1°C 86% 6.7 mph SSW10.8 kmh SSW 10.7 mph17.2 kmh 29.84 in1010.5 mb 0.00 in0.0 mm 0.00 in0.0 mm 0.02 in0.5 mm
03:30 PM 54.3°F12.4°C 50.2°F10.1°C 86% 6.1 mph SSW9.8 kmh SSW 9.2 mph14.8 kmh 29.84 in1010.5 mb 0.00 in0.0 mm 0.00 in0.0 mm 0.02 in0.5 mm
03:40 PM 54.3°F12.4°C 50.2°F10.1°C 86% 4.8 mph SSW7.7 kmh SSW 6.9 mph11.1 kmh 29.84 in1010.5 mb 0.00 in0.0 mm 0.00 in0.0 mm 0.02 in0.5 mm
03:50 PM 54.3°F12.4°C 50.2°F10.1°C 86% 2.8 mph SSW4.5 kmh SSW 5.4 mph8.7 kmh 29.84 in1010.5 mb 0.00 in0.0 mm 0.00 in0.0 mm 0.02 in0.5 mm
04:00 PM 54.3°F12.4°C 50.2°F10.1°C 86% 2.3 mph S3.7 kmh S 6.9 mph11.1 kmh 29.84 in1010.5 mb 0.00 in0.0 mm 0.00 in0.0 mm 0.02 in0.5 mm
04:10 PM 54.3°F12.4°C 50.5°F10.3°C 87% 3.8 mph S6.1 kmh S 6.9 mph11.1 kmh 29.84 in1010.5 mb 0.00 in0.0 mm 0.00 in0.0 mm 0.02 in0.5 mm
04:20 PM 54.3°F12.4°C 50.5°F10.3°C 87% 5.2 mph S8.4 kmh S 6.9 mph11.1 kmh 29.84 in1010.5 mb 0.00 in0.0 mm 0.00 in0.0 mm 0.02 in0.5 mm
04:30 PM 54.3°F12.4°C 50.5°F10.3°C 87% 5.7 mph SSW9.2 kmh SSW 7.6 mph12.2 kmh 29.83 in1010.2 mb 0.00 in0.0 mm 0.00 in0.0 mm 0.02 in0.5 mm
04:40 PM 54.3°F12.4°C 50.5°F10.3°C 87% 5.2 mph SW8.4 kmh SW 6.9 mph11.1 kmh 29.84 in1010.5 mb 0.00 in0.0 mm 0.00 in0.0 mm 0.02 in0.5 mm
04:50 PM 54.3°F12.4°C 50.8°F10.4°C 88% 5.0 mph SSW8.0 kmh SSW 8.3 mph13.4 kmh 29.83 in1010.2 mb 0.00 in0.0 mm 0.00 in0.0 mm 0.02 in0.5 mm
05:00 PM 54.3°F12.4°C 50.8°F10.4°C 88% 3.8 mph SSW6.1 kmh SSW 5.4 mph8.7 kmh 29.84 in1010.5 mb 0.00 in0.0 mm 0.00 in0.0 mm 0.02 in0.5 mm
05:10 PM 54.3°F12.4°C 50.8°F10.4°C 88% 4.2 mph SW6.8 kmh SW 6.9 mph11.1 kmh 29.84 in1010.5 mb 0.00 in0.0 mm 0.00 in0.0 mm 0.02 in0.5 mm
05:20 PM 54.5°F12.5°C 49.8°F9.9°C 84% 4.1 mph S6.6 kmh S 6.9 mph11.1 kmh 29.84 in1010.5 mb 0.00 in0.0 mm 0.00 in0.0 mm 0.02 in0.5 mm
05:30 PM 54.5°F12.5°C 49.8°F9.9°C 84% 6.4 mph SSW10.3 kmh SSW 9.8 mph15.8 kmh 29.84 in1010.5 mb 0.00 in0.0 mm 0.00 in0.0 mm 0.02 in0.5 mm
05:40 PM 54.5°F12.5°C 49.8°F9.9°C 84% 6.3 mph S10.1 kmh S 9.2 mph14.8 kmh 29.84 in1010.5 mb 0.00 in0.0 mm 0.00 in0.0 mm 0.02 in0.5 mm
05:50 PM 54.5°F12.5°C 49.8°F9.9°C 84% 5.5 mph SSW8.9 kmh SSW 7.6 mph12.2 kmh 29.84 in1010.5 mb 0.00 in0.0 mm 0.00 in0.0 mm 0.02 in0.5 mm
06:00 PM 54.7°F12.6°C 49.9°F9.9°C 84% 6.6 mph S10.6 kmh S 8.3 mph13.4 kmh 29.84 in1010.5 mb 0.00 in0.0 mm 0.00 in0.0 mm 0.02 in0.5 mm
06:10 PM 54.7°F12.6°C 49.9°F9.9°C 84% 5.7 mph SSW9.2 kmh SSW 9.2 mph14.8 kmh 29.84 in1010.5 mb 0.00 in0.0 mm 0.00 in0.0 mm 0.02 in0.5 mm
06:20 PM 54.7°F12.6°C 49.9°F9.9°C 84% 6.4 mph SSW10.3 kmh SSW 9.8 mph15.8 kmh 29.84 in1010.5 mb 0.00 in0.0 mm 0.00 in0.0 mm 0.02 in0.5 mm
06:30 PM 54.7°F12.6°C 49.9°F9.9°C 84% 7.0 mph SSW11.3 kmh SSW 8.3 mph13.4 kmh 29.84 in1010.5 mb 0.00 in0.0 mm 0.00 in0.0 mm 0.02 in0.5 mm
06:40 PM 54.7°F12.6°C 49.9°F9.9°C 84% 5.0 mph SSW8.0 kmh SSW 6.9 mph11.1 kmh 29.84 in1010.5 mb 0.00 in0.0 mm 0.00 in0.0 mm 0.02 in0.5 mm
06:50 PM 54.5°F12.5°C 49.8°F9.9°C 84% 3.9 mph SSW6.3 kmh SSW 6.0 mph9.7 kmh 29.84 in1010.5 mb 0.00 in0.0 mm 0.00 in0.0 mm 0.02 in0.5 mm
07:00 PM 54.5°F12.5°C 49.8°F9.9°C 84% 5.0 mph SSW8.0 kmh SSW 6.9 mph11.1 kmh 29.83 in1010.2 mb 0.01 in0.3 mm 0.01 in0.3 mm 0.04 in1.0 mm
07:10 PM 54.5°F12.5°C 50.1°F10.1°C 85% 6.2 mph S10.0 kmh S 7.6 mph12.2 kmh 29.83 in1010.2 mb 0.01 in0.3 mm 0.00 in0.0 mm 0.04 in1.0 mm
07:20 PM 54.5°F12.5°C 50.1°F10.1°C 85% 7.2 mph SSW11.6 kmh SSW 9.2 mph14.8 kmh 29.82 in1009.8 mb 0.01 in0.3 mm 0.00 in0.0 mm 0.04 in1.0 mm
07:30 PM 54.5°F12.5°C 50.1°F10.1°C 85% 8.7 mph SSW14.0 kmh SSW 12.1 mph19.5 kmh 29.82 in1009.8 mb 0.01 in0.3 mm 0.00 in0.0 mm 0.04 in1.0 mm
07:40 PM 54.5°F12.5°C 50.1°F10.1°C 85% 11.4 mph SW18.3 kmh SW 11.4 mph18.3 kmh 29.83 in1010.2 mb 0.01 in0.3 mm 0.00 in0.0 mm 0.04 in1.0 mm
07:50 PM 54.5°F12.5°C 50.1°F10.1°C 85% 11.4 mph SW18.3 kmh SW 11.4 mph18.3 kmh 29.83 in1010.2 mb 0.01 in0.3 mm 0.00 in0.0 mm 0.04 in1.0 mm
08:00 PM 54.5°F12.5°C 50.1°F10.1°C 85% 11.4 mph SW18.3 kmh SW 11.4 mph18.3 kmh 29.82 in1009.8 mb 0.00 in0.0 mm 0.00 in0.0 mm 0.04 in1.0 mm
08:10 PM 54.5°F12.5°C 50.1°F10.1°C 85% 11.4 mph SW18.3 kmh SW 11.4 mph18.3 kmh 29.82 in1009.8 mb 0.00 in0.0 mm 0.00 in0.0 mm 0.04 in1.0 mm
08:20 PM 54.5°F12.5°C 50.1°F10.1°C 85% 11.4 mph SW18.3 kmh SW 11.4 mph18.3 kmh 29.82 in1009.8 mb 0.00 in0.0 mm 0.00 in0.0 mm 0.04 in1.0 mm
08:30 PM 54.7°F12.6°C 50.3°F10.2°C 85% 7.8 mph S12.6 kmh S 9.2 mph14.8 kmh 29.81 in1009.5 mb 0.00 in0.0 mm 0.00 in0.0 mm 0.03 in0.8 mm
08:40 PM 54.7°F12.6°C 50.3°F10.2°C 85% 6.3 mph SW10.1 kmh SW 9.2 mph14.8 kmh 29.81 in1009.5 mb 0.00 in0.0 mm 0.00 in0.0 mm 0.03 in0.8 mm
08:50 PM 54.7°F12.6°C 50.3°F10.2°C 85% 5.3 mph SSW8.5 kmh SSW 7.6 mph12.2 kmh 29.81 in1009.5 mb 0.00 in0.0 mm 0.00 in0.0 mm 0.03 in0.8 mm
09:00 PM 54.7°F12.6°C 50.3°F10.2°C 85% 5.8 mph SW9.3 kmh SW 7.6 mph12.2 kmh 29.80 in1009.1 mb 0.00 in0.0 mm 0.00 in0.0 mm 0.03 in0.8 mm
09:10 PM 54.7°F12.6°C 50.3°F10.2°C 85% 5.8 mph SSW9.3 kmh SSW 8.3 mph13.4 kmh 29.80 in1009.1 mb 0.00 in0.0 mm 0.00 in0.0 mm 0.03 in0.8 mm
09:20 PM 54.7°F12.6°C 50.3°F10.2°C 85% 5.4 mph SSW8.7 kmh SSW 6.9 mph11.1 kmh 29.79 in1008.8 mb 0.00 in0.0 mm 0.00 in0.0 mm 0.03 in0.8 mm
09:30 PM 54.9°F12.7°C 50.8°F10.4°C 86% 7.9 mph SSW12.7 kmh SSW 10.7 mph17.2 kmh 29.78 in1008.5 mb 0.00 in0.0 mm 0.00 in0.0 mm 0.03 in0.8 mm
09:40 PM 55.0°F12.8°C 50.9°F10.5°C 86% 10.0 mph SSW16.1 kmh SSW 13.6 mph21.9 kmh 29.79 in1008.8 mb 0.00 in0.0 mm 0.00 in0.0 mm 0.03 in0.8 mm
09:50 PM 55.0°F12.8°C 50.6°F10.3°C 85% 8.6 mph SSW13.8 kmh SSW 10.7 mph17.2 kmh 29.77 in1008.1 mb 0.00 in0.0 mm 0.00 in0.0 mm 0.03 in0.8 mm
10:00 PM 55.0°F12.8°C 50.6°F10.3°C 85% 9.6 mph SW15.4 kmh SW 12.1 mph19.5 kmh 29.78 in1008.5 mb 0.00 in0.0 mm 0.00 in0.0 mm 0.03 in0.8 mm
10:10 PM 55.0°F12.8°C 50.6°F10.3°C 85% 9.2 mph SW14.8 kmh SW 12.1 mph19.5 kmh 29.77 in1008.1 mb 0.00 in0.0 mm 0.00 in0.0 mm 0.03 in0.8 mm
10:20 PM 55.0°F12.8°C 50.6°F10.3°C 85% 8.3 mph SSW13.4 kmh SSW 14.5 mph23.3 kmh 29.77 in1008.1 mb 0.00 in0.0 mm 0.00 in0.0 mm 0.03 in0.8 mm
10:30 PM 55.0°F12.8°C 50.6°F10.3°C 85% 8.5 mph SSW13.7 kmh SSW 10.7 mph17.2 kmh 29.77 in1008.1 mb 0.00 in0.0 mm 0.00 in0.0 mm 0.03 in0.8 mm
10:40 PM 55.0°F12.8°C 50.6°F10.3°C 85% 8.2 mph S13.2 kmh S 10.7 mph17.2 kmh 29.77 in1008.1 mb 0.00 in0.0 mm 0.00 in0.0 mm 0.03 in0.8 mm
10:50 PM 55.0°F12.8°C 50.6°F10.3°C 85% 10.7 mph S17.2 kmh S 15.2 mph24.5 kmh 29.77 in1008.1 mb 0.00 in0.0 mm 0.00 in0.0 mm 0.03 in0.8 mm
11:00 PM 55.0°F12.8°C 50.6°F10.3°C 85% 9.1 mph SSW14.6 kmh SSW 15.9 mph25.6 kmh 29.76 in1007.8 mb 0.00 in0.0 mm 0.00 in0.0 mm 0.03 in0.8 mm
11:10 PM 54.9°F12.7°C 50.4°F10.2°C 85% 8.8 mph SSW14.2 kmh SSW 13.6 mph21.9 kmh 29.75 in1007.5 mb 0.00 in0.0 mm 0.00 in0.0 mm 0.03 in0.8 mm
11:20 PM 54.9°F12.7°C 50.4°F10.2°C 85% 7.3 mph SW11.7 kmh SW 9.8 mph15.8 kmh 29.75 in1007.5 mb 0.00 in0.0 mm 0.00 in0.0 mm 0.03 in0.8 mm
11:30 PM 54.9°F12.7°C 50.4°F10.2°C 85% 7.4 mph SSW11.9 kmh SSW 12.1 mph19.5 kmh 29.75 in1007.5 mb 0.00 in0.0 mm 0.00 in0.0 mm 0.03 in0.8 mm
11:40 PM 55.0°F12.8°C 50.6°F10.3°C 85% 8.4 mph SW13.5 kmh SW 12.1 mph19.5 kmh 29.74 in1007.1 mb 0.00 in0.0 mm 0.00 in0.0 mm 0.03 in0.8 mm
11:50 PM 55.0°F12.8°C 50.6°F10.3°C 85% 8.4 mph S13.5 kmh S 13.6 mph21.9 kmh 29.74 in1007.1 mb 0.00 in0.0 mm 0.00 in0.0 mm 0.03 in0.8 mm